Time;durP1;ratioP1;P1;durP2;ratioP2;P2;SDS_P1;SDS_P2;PMS_P1;PMS_P2;Temp;Humidity;BMP_temperature;BMP_pressure;BME280_temperature;BME280_humidity;BME280_pressure;Samples;Min_cycle;Max_cycle;Signal;HPM_P1;HPM_P2
2024/02/15 00:00:03;;;;;;;4.87;1.80;;;;;;;-146.29;100.00;59205.81;5031377;28;20205;-71
2024/02/15 00:02:28;;;;;;;5.77;1.77;;;;;;;-146.29;100.00;59205.81;5035321;28;20678;-71
2024/02/15 00:04:54;;;;;;;2.90;1.60;;;;;;;-146.29;100.00;59205.81;5030507;28;20548;-70
2024/02/15 00:07:22;;;;;;;5.57;1.73;;;;;;;-146.29;100.00;59205.81;5030927;28;20262;-70
2024/02/15 00:09:48;;;;;;;4.90;1.97;;;;;;;-146.29;100.00;59205.81;5032659;28;20183;-72
2024/02/15 00:12:13;;;;;;;2.73;1.50;;;;;;;-146.29;100.00;59205.81;5021490;28;20926;-68
2024/02/15 00:14:39;;;;;;;3.93;1.60;;;;;;;-146.29;100.00;59205.81;5042013;28;20440;-69
2024/02/15 00:17:04;;;;;;;3.00;1.50;;;;;;;-146.29;100.00;59205.81;5033121;28;20566;-71
2024/02/15 00:19:30;;;;;;;6.63;1.80;;;;;;;-146.29;100.00;59205.81;5035691;28;20176;-70
2024/02/15 00:21:56;;;;;;;3.67;1.60;;;;;;;-146.29;100.00;59205.81;5034252;28;20187;-70
2024/02/15 00:24:22;;;;;;;3.90;2.10;;;;;;;-146.29;100.00;59205.81;5037198;28;20603;-70
2024/02/15 00:26:47;;;;;;;7.00;1.87;;;;;;;-146.29;100.00;59205.81;5029688;28;20224;-70
2024/02/15 00:29:13;;;;;;;3.80;1.87;;;;;;;-146.29;100.00;59205.81;5030250;28;20430;-71
2024/02/15 00:31:39;;;;;;;3.50;1.87;;;;;;;-146.29;100.00;59205.81;5030556;28;20184;-72
2024/02/15 00:34:05;;;;;;;4.23;1.90;;;;;;;-146.29;100.00;59205.81;5029024;28;20188;-71
2024/02/15 00:36:32;;;;;;;2.90;1.77;;;;;;;-146.29;100.00;59205.81;5033804;28;20203;-71
2024/02/15 00:38:57;;;;;;;2.57;1.50;;;;;;;-146.29;100.00;59205.81;5028606;28;20513;-69
2024/02/15 00:41:23;;;;;;;2.60;1.83;;;;;;;-146.29;100.00;59205.81;5033654;28;20510;-70
2024/02/15 00:43:49;;;;;;;3.50;1.70;;;;;;;-146.29;100.00;59205.81;5032128;28;20192;-69
2024/02/15 00:46:16;;;;;;;2.27;1.50;;;;;;;-146.29;100.00;59205.81;5037954;28;20247;-68
2024/02/15 00:48:41;;;;;;;2.83;1.87;;;;;;;-146.29;100.00;59205.81;5038038;28;20187;-69
2024/02/15 00:51:07;;;;;;;4.47;1.47;;;;;;;-146.29;100.00;59205.81;5029552;28;20477;-69
2024/02/15 00:53:32;;;;;;;2.63;1.50;;;;;;;-146.29;100.00;59205.81;5029994;28;20175;-71
2024/02/15 00:55:58;;;;;;;3.00;1.37;;;;;;;-146.29;100.00;59205.81;5029413;28;20212;-71
2024/02/15 00:58:24;;;;;;;2.30;1.47;;;;;;;-146.29;100.00;59205.81;5029896;28;20708;-70
2024/02/15 01:00:49;;;;;;;3.13;1.63;;;;;;;-146.29;100.00;59205.81;5032898;28;20187;-71
2024/02/15 01:03:15;;;;;;;2.43;1.90;;;;;;;-146.29;100.00;59205.81;5028857;28;20903;-69
2024/02/15 01:05:41;;;;;;;4.17;1.60;;;;;;;-146.29;100.00;59205.81;5009908;28;20218;-72
2024/02/15 01:08:06;;;;;;;4.50;1.80;;;;;;;-146.29;100.00;59205.81;5030028;28;20222;-69
2024/02/15 01:10:33;;;;;;;2.23;1.67;;;;;;;-146.29;100.00;59205.81;5031038;28;20271;-71
2024/02/15 01:12:59;;;;;;;2.40;1.93;;;;;;;-146.29;100.00;59205.81;5040789;28;20540;-71
2024/02/15 01:15:24;;;;;;;3.73;2.97;;;;;;;-146.29;100.00;59205.81;5029940;28;20454;-70
2024/02/15 01:17:49;;;;;;;5.97;2.53;;;;;;;-146.29;100.00;59205.81;5029058;28;20183;-68
2024/02/15 01:20:15;;;;;;;3.03;2.50;;;;;;;-146.29;100.00;59205.81;5029925;28;20704;-71
2024/02/15 01:22:41;;;;;;;3.50;1.83;;;;;;;-146.29;100.00;59205.81;5038323;28;20554;-70
2024/02/15 01:25:08;;;;;;;5.53;2.30;;;;;;;-146.29;100.00;59205.81;5037232;28;20219;-69
2024/02/15 01:27:34;;;;;;;2.80;1.87;;;;;;;-146.29;100.00;59205.81;5035241;28;20502;-67
2024/02/15 01:29:59;;;;;;;6.30;2.03;;;;;;;-146.29;100.00;59205.81;5032771;28;20286;-69
2024/02/15 01:32:28;;;;;;;1.60;1.40;;;;;;;-146.29;100.00;59205.81;5030606;28;20180;-68
2024/02/15 01:34:54;;;;;;;3.27;1.80;;;;;;;-146.29;100.00;59205.81;5034316;28;20196;-69
2024/02/15 01:37:20;;;;;;;3.40;1.60;;;;;;;-146.29;100.00;59205.81;5028311;28;20480;-68
2024/02/15 01:39:46;;;;;;;4.53;2.43;;;;;;;-146.29;100.00;59205.81;5029251;28;20433;-69
2024/02/15 01:42:14;;;;;;;4.20;1.63;;;;;;;-146.29;100.00;59205.81;5039716;28;20906;-68
2024/02/15 01:44:40;;;;;;;2.97;1.70;;;;;;;-146.29;100.00;59205.81;5030900;28;20204;-70
2024/02/15 01:47:05;;;;;;;1.80;1.47;;;;;;;-146.29;100.00;59205.81;5028483;28;20492;-70
2024/02/15 01:49:32;;;;;;;2.27;1.70;;;;;;;-146.29;100.00;59205.81;5034323;28;20437;-69
2024/02/15 01:51:57;;;;;;;3.20;1.90;;;;;;;-146.29;100.00;59205.81;5027958;28;20255;-69
2024/02/15 01:54:23;;;;;;;4.27;1.80;;;;;;;-146.29;100.00;59205.81;5032380;28;20765;-72
2024/02/15 01:56:49;;;;;;;2.30;1.70;;;;;;;-146.29;100.00;59205.81;5031816;28;20299;-72
2024/02/15 01:59:15;;;;;;;4.77;1.67;;;;;;;-146.29;100.00;59205.81;5027309;28;20184;-69
2024/02/15 02:01:41;;;;;;;2.90;1.53;;;;;;;-146.29;100.00;59205.81;5035779;28;20976;-69
2024/02/15 02:04:07;;;;;;;2.77;1.70;;;;;;;-146.29;100.00;59205.81;5028883;28;20842;-70
2024/02/15 02:06:33;;;;;;;4.40;1.70;;;;;;;-146.29;100.00;59205.81;5028408;28;20442;-70
2024/02/15 02:08:58;;;;;;;3.23;2.10;;;;;;;-146.29;100.00;59205.81;5036322;28;20437;-68
2024/02/15 02:11:24;;;;;;;3.30;1.70;;;;;;;-146.29;100.00;59205.81;5028180;28;20244;-70
2024/02/15 02:13:51;;;;;;;3.13;1.80;;;;;;;-146.29;100.00;59205.81;5027452;28;20317;-69
2024/02/15 02:16:27;;;;;;;3.87;2.30;;;;;;;-146.29;100.00;59205.81;5028187;28;20223;-69
2024/02/15 02:18:54;;;;;;;7.07;2.07;;;;;;;-146.29;100.00;59205.81;5032935;28;20422;-70
2024/02/15 02:21:20;;;;;;;7.93;2.00;;;;;;;-146.29;100.00;59205.81;5030109;28;20434;-69
2024/02/15 02:23:49;;;;;;;3.07;2.53;;;;;;;-146.29;100.00;59205.81;5030478;28;20525;-69
2024/02/15 02:26:15;;;;;;;3.97;2.40;;;;;;;-146.29;100.00;59205.81;5026279;28;20469;-69
2024/02/15 02:28:41;;;;;;;3.50;2.27;;;;;;;-146.29;100.00;59205.81;5027768;28;20766;-70
2024/02/15 02:31:06;;;;;;;4.17;2.63;;;;;;;-146.29;100.00;59205.81;5027505;28;20487;-69
2024/02/15 02:33:33;;;;;;;4.97;2.40;;;;;;;-146.29;100.00;59205.81;5027912;28;20720;-68
2024/02/15 02:35:58;;;;;;;4.50;2.20;;;;;;;-146.29;100.00;59205.81;5027619;28;20670;-70
2024/02/15 02:38:26;;;;;;;3.10;2.07;;;;;;;-146.29;100.00;59205.81;5028070;28;20518;-69
2024/02/15 02:40:52;;;;;;;3.63;2.40;;;;;;;-146.29;100.00;59205.81;5032440;28;20191;-68
2024/02/15 02:43:17;;;;;;;4.73;2.27;;;;;;;-146.29;100.00;59205.81;5028587;28;20426;-68
2024/02/15 02:45:45;;;;;;;2.70;2.23;;;;;;;-146.29;100.00;59205.81;5043082;28;20456;-69
2024/02/15 02:48:11;;;;;;;1.93;1.67;;;;;;;-146.29;100.00;59205.81;5028126;28;20274;-69
2024/02/15 02:50:37;;;;;;;3.20;2.10;;;;;;;-146.29;100.00;59205.81;5024631;28;20439;-69
2024/02/15 02:53:03;;;;;;;2.50;2.00;;;;;;;-146.29;100.00;59205.81;5028265;28;20485;-68
2024/02/15 02:55:29;;;;;;;2.50;2.23;;;;;;;-146.29;100.00;59205.81;5037274;28;20591;-68
2024/02/15 02:57:54;;;;;;;5.20;2.27;;;;;;;-146.29;100.00;59205.81;5034805;28;20183;-68
2024/02/15 03:00:21;;;;;;;5.50;2.10;;;;;;;-146.29;100.00;59205.81;5030168;28;20421;-69
2024/02/15 03:02:47;;;;;;;2.93;2.03;;;;;;;-146.29;100.00;59205.81;5028250;28;20188;-70
2024/02/15 03:05:15;;;;;;;10.00;2.90;;;;;;;-146.29;100.00;59205.81;5035698;28;20484;-69
2024/02/15 03:07:41;;;;;;;4.93;2.47;;;;;;;-146.29;100.00;59205.81;5027926;28;20203;-69
2024/02/15 03:10:08;;;;;;;6.77;3.40;;;;;;;-146.29;100.00;59205.81;5038153;28;20429;-69
2024/02/15 03:12:37;;;;;;;5.57;3.17;;;;;;;-146.29;100.00;59205.81;5027931;28;20429;-70
2024/02/15 03:15:04;;;;;;;6.40;3.10;;;;;;;-146.29;100.00;59205.81;5026917;28;20450;-69
2024/02/15 03:17:31;;;;;;;4.60;2.30;;;;;;;-146.29;100.00;59205.81;5027539;28;20509;-69
2024/02/15 03:20:00;;;;;;;2.60;2.00;;;;;;;-146.29;100.00;59205.81;5028412;28;20789;-69
2024/02/15 03:22:29;;;;;;;4.43;2.37;;;;;;;-146.29;100.00;59205.81;5034744;28;20900;-69
2024/02/15 03:24:54;;;;;;;4.70;2.70;;;;;;;-146.29;100.00;59205.81;5027811;28;20873;-68
2024/02/15 03:27:22;;;;;;;4.40;2.73;;;;;;;-146.29;100.00;59205.81;5030511;28;20521;-71
2024/02/15 03:29:48;;;;;;;5.80;2.90;;;;;;;-146.29;100.00;59205.81;5031802;28;20238;-69
2024/02/15 03:32:14;;;;;;;5.37;2.47;;;;;;;-146.29;100.00;59205.81;5031648;28;20430;-69
2024/02/15 03:34:39;;;;;;;5.00;2.33;;;;;;;-146.29;100.00;59205.81;5031728;28;20673;-69
2024/02/15 03:37:04;;;;;;;6.03;3.40;;;;;;;-146.29;100.00;59205.81;5031295;28;20190;-69
2024/02/15 03:39:30;;;;;;;7.67;2.73;;;;;;;-146.29;100.00;59205.81;5031569;28;20286;-69
2024/02/15 03:41:56;;;;;;;4.47;2.80;;;;;;;-146.29;100.00;59205.81;5031264;28;20614;-68
2024/02/15 03:44:25;;;;;;;2.80;2.40;;;;;;;-146.29;100.00;59205.81;5030936;28;20560;-68
2024/02/15 03:46:51;;;;;;;6.37;2.60;;;;;;;-146.29;100.00;59205.81;5031618;28;20207;-71
2024/02/15 03:49:21;;;;;;;2.97;2.47;;;;;;;-146.29;100.00;59205.81;5034969;28;20834;-69
2024/02/15 03:51:47;;;;;;;3.63;2.30;;;;;;;-146.29;100.00;59205.81;5036513;28;20460;-70
2024/02/15 03:54:13;;;;;;;4.67;2.47;;;;;;;-146.29;100.00;59205.81;5031077;28;20423;-69
2024/02/15 03:56:52;;;;;;;3.47;2.30;;;;;;;-146.29;100.00;59205.81;5031421;28;20521;-69
2024/02/15 03:59:26;;;;;;;3.83;2.27;;;;;;;-146.29;100.00;59205.81;5030869;28;20422;-69
2024/02/15 04:01:56;;;;;;;2.80;2.60;;;;;;;-146.29;100.00;59205.81;5030867;28;20429;-70
2024/02/15 04:04:22;;;;;;;4.47;2.30;;;;;;;-146.29;100.00;59205.81;5050366;28;20833;-69
2024/02/15 04:06:51;;;;;;;4.20;2.67;;;;;;;-146.29;100.00;59205.81;5042811;28;20449;-69
2024/02/15 04:09:23;;;;;;;3.23;2.80;;;;;;;-146.29;100.00;59205.81;5031167;28;20457;-69
2024/02/15 04:11:52;;;;;;;2.57;2.33;;;;;;;-146.29;100.00;59205.81;5030349;28;20488;-68
2024/02/15 04:14:19;;;;;;;3.40;2.97;;;;;;;-146.29;100.00;59205.81;5030256;28;20445;-69
2024/02/15 04:16:45;;;;;;;2.70;2.50;;;;;;;-146.29;100.00;59205.81;5035203;28;20473;-68
2024/02/15 04:19:13;;;;;;;3.87;2.50;;;;;;;-146.29;100.00;59205.81;5030324;28;20454;-71
2024/02/15 04:21:39;;;;;;;4.13;3.07;;;;;;;-146.29;100.00;59205.81;5032709;28;20241;-69
2024/02/15 04:24:06;;;;;;;4.40;2.70;;;;;;;-146.29;100.00;59205.81;5034595;28;20423;-70
2024/02/15 04:26:32;;;;;;;6.73;3.10;;;;;;;-146.29;100.00;59205.81;5031362;28;20790;-70
2024/02/15 04:28:58;;;;;;;4.37;3.07;;;;;;;-146.29;100.00;59205.81;5031398;28;20492;-71
2024/02/15 04:31:26;;;;;;;4.67;2.83;;;;;;;-146.29;100.00;59205.81;5034661;28;20190;-69
2024/02/15 04:33:55;;;;;;;9.33;2.60;;;;;;;-146.29;100.00;59205.81;5031393;28;20435;-69
2024/02/15 04:36:25;;;;;;;3.33;2.47;;;;;;;-146.29;100.00;59205.81;5030258;28;20481;-68
2024/02/15 04:38:51;;;;;;;3.10;2.00;;;;;;;-146.29;100.00;59205.81;5027821;28;20445;-68
2024/02/15 04:41:22;;;;;;;3.93;2.60;;;;;;;-146.29;100.00;59205.81;5029533;28;20530;-69
2024/02/15 04:43:48;;;;;;;6.10;3.00;;;;;;;-146.29;100.00;59205.81;5029478;28;20492;-70
2024/02/15 04:46:14;;;;;;;2.97;2.47;;;;;;;-146.29;100.00;59205.81;5033623;28;20470;-69
2024/02/15 04:48:41;;;;;;;2.30;2.10;;;;;;;-146.29;100.00;59205.81;5032042;28;20222;-70
2024/02/15 04:51:07;;;;;;;3.20;2.20;;;;;;;-146.29;100.00;59205.81;5029903;28;20211;-69
2024/02/15 04:53:33;;;;;;;3.93;2.20;;;;;;;-146.29;100.00;59205.81;5032303;28;20429;-70
2024/02/15 04:56:00;;;;;;;3.40;2.27;;;;;;;-146.29;100.00;59205.81;5029688;28;20530;-71
2024/02/15 04:58:28;;;;;;;3.33;2.30;;;;;;;-146.29;100.00;59205.81;5038448;28;20183;-69
2024/02/15 05:00:58;;;;;;;3.07;2.50;;;;;;;-146.29;100.00;59205.81;5029410;28;20418;-70
2024/02/15 05:03:24;;;;;;;5.07;2.87;;;;;;;-146.29;100.00;59205.81;5022897;28;20480;-71
2024/02/15 05:05:50;;;;;;;5.17;3.00;;;;;;;-146.29;100.00;59205.81;5029940;28;20466;-69
2024/02/15 05:08:15;;;;;;;4.23;2.97;;;;;;;-146.29;100.00;59205.81;5037640;28;20527;-69
2024/02/15 05:10:41;;;;;;;5.20;3.40;;;;;;;-146.29;100.00;59205.81;5028100;28;20234;-69
2024/02/15 05:13:06;;;;;;;4.90;2.97;;;;;;;-146.29;100.00;59205.81;5028523;28;20191;-70
2024/02/15 05:15:32;;;;;;;4.43;2.83;;;;;;;-146.29;100.00;59205.81;5037161;28;20295;-70
2024/02/15 05:17:58;;;;;;;6.50;2.70;;;;;;;-146.29;100.00;59205.81;5029546;28;20183;-69
2024/02/15 05:20:26;;;;;;;5.57;3.40;;;;;;;-146.29;100.00;59205.81;5022881;28;20431;-69
2024/02/15 05:22:52;;;;;;;5.23;2.80;;;;;;;-146.29;100.00;59205.81;4995374;28;20215;-69
2024/02/15 05:25:26;;;;;;;3.80;2.70;;;;;;;-146.29;100.00;59205.81;5026645;28;20817;-71
2024/02/15 05:27:53;;;;;;;9.30;3.60;;;;;;;-146.29;100.00;59205.81;5027819;28;20190;-70
2024/02/15 05:30:19;;;;;;;3.80;3.00;;;;;;;-146.29;100.00;59205.81;5028558;28;20757;-69
2024/02/15 05:32:45;;;;;;;3.60;2.47;;;;;;;-146.29;100.00;59205.81;5036453;28;20438;-70
2024/02/15 05:35:11;;;;;;;5.10;2.23;;;;;;;-146.29;100.00;59205.81;5031280;28;20203;-70
2024/02/15 05:37:37;;;;;;;4.73;2.67;;;;;;;-146.29;100.00;59205.81;5042183;28;21064;-69
2024/02/15 05:40:03;;;;;;;4.70;2.27;;;;;;;-146.29;100.00;59205.81;5018671;28;20453;-70
2024/02/15 05:42:29;;;;;;;4.03;2.33;;;;;;;-146.29;100.00;59205.81;5022151;28;20422;-70
2024/02/15 05:44:55;;;;;;;3.63;2.13;;;;;;;-146.29;100.00;59205.81;5028376;28;20277;-69
2024/02/15 05:47:20;;;;;;;5.20;2.90;;;;;;;-146.29;100.00;59205.81;5028671;28;20493;-70
2024/02/15 05:49:47;;;;;;;8.60;3.23;;;;;;;-146.29;100.00;59205.81;5033821;28;20294;-70
2024/02/15 05:52:12;;;;;;;6.70;3.07;;;;;;;-146.29;100.00;59205.81;5027863;28;20180;-70
2024/02/15 05:54:39;;;;;;;5.40;2.70;;;;;;;-146.29;100.00;59205.81;5028498;28;20489;-69
2024/02/15 05:57:05;;;;;;;6.23;3.10;;;;;;;-146.29;100.00;59205.81;5040036;28;20681;-70
2024/02/15 05:59:30;;;;;;;4.93;3.30;;;;;;;-146.29;100.00;59205.81;5030960;28;20434;-69
2024/02/15 06:01:56;;;;;;;8.30;4.30;;;;;;;-146.29;100.00;59205.81;5029517;28;20585;-69
2024/02/15 06:04:23;;;;;;;7.63;3.80;;;;;;;-146.29;100.00;59205.81;5036451;28;20290;-69
2024/02/15 06:06:50;;;;;;;12.30;4.97;;;;;;;-146.29;100.00;59205.81;5036283;28;20254;-70
2024/02/15 06:09:16;;;;;;;35.30;15.87;;;;;;;-146.29;100.00;59205.81;5027915;28;20425;-69
2024/02/15 06:11:44;;;;;;;43.53;18.40;;;;;;;-146.29;100.00;59205.81;5028188;28;20422;-69
2024/02/15 06:14:09;;;;;;;24.60;11.83;;;;;;;-146.29;100.00;59205.81;5027584;28;20431;-69
2024/02/15 06:16:44;;;;;;;18.13;8.37;;;;;;;-146.29;100.00;59205.81;5032152;28;20448;-69
2024/02/15 06:19:09;;;;;;;46.07;21.00;;;;;;;-146.29;100.00;59205.81;5030940;28;20206;-69
2024/02/15 06:21:35;;;;;;;84.93;37.90;;;;;;;-146.29;100.00;59205.81;5034585;28;20430;-69
2024/02/15 06:24:00;;;;;;;79.67;38.73;;;;;;;-146.29;100.00;59205.81;5031681;28;20274;-68
2024/02/15 06:26:26;;;;;;;65.33;32.80;;;;;;;-146.29;100.00;59205.81;5035960;28;20294;-69
2024/02/15 06:39:49;;;;;;;24.90;13.83;;;;;;;-146.29;100.00;59205.81;5026984;28;20430;-71
2024/02/15 06:42:17;;;;;;;25.40;14.27;;;;;;;-146.29;100.00;59205.81;5027516;28;20434;-69
2024/02/15 06:44:43;;;;;;;14.20;9.40;;;;;;;-146.29;100.00;59205.81;5030739;28;20476;-69
2024/02/15 06:47:10;;;;;;;18.00;9.13;;;;;;;-146.29;100.00;59205.81;5034333;28;20422;-69
2024/02/15 06:49:39;;;;;;;17.60;9.60;;;;;;;-146.29;100.00;59205.81;5030153;28;20454;-68
2024/02/15 06:52:06;;;;;;;28.70;13.77;;;;;;;-146.29;100.00;59205.81;5031724;28;21074;-69
2024/02/15 06:54:35;;;;;;;19.80;11.50;;;;;;;-146.29;100.00;59205.81;5027033;28;20461;-69
2024/02/15 06:57:02;;;;;;;16.03;9.10;;;;;;;-146.29;100.00;59205.81;5027977;28;20454;-67
2024/02/15 06:59:27;;;;;;;15.77;8.30;;;;;;;-146.29;100.00;59205.81;5027611;28;20418;-68
2024/02/15 07:01:55;;;;;;;13.43;6.83;;;;;;;-146.29;100.00;59205.81;5027097;28;20426;-69
2024/02/15 07:04:20;;;;;;;11.33;6.90;;;;;;;-146.29;100.00;59205.81;5029225;28;20264;-70
2024/02/15 07:06:47;;;;;;;9.90;5.70;;;;;;;-146.29;100.00;59205.81;5028176;28;20530;-70
2024/02/15 07:09:15;;;;;;;12.00;5.43;;;;;;;-146.29;100.00;59205.81;5024602;28;20205;-70
2024/02/15 07:11:41;;;;;;;7.67;5.53;;;;;;;-146.29;100.00;59205.81;5028868;28;20425;-68
2024/02/15 07:14:07;;;;;;;9.17;5.70;;;;;;;-146.29;100.00;59205.81;5021033;28;20785;-70
2024/02/15 07:16:33;;;;;;;11.53;5.87;;;;;;;-146.29;100.00;59205.81;5023267;28;20199;-69
2024/02/15 07:18:59;;;;;;;12.37;5.20;;;;;;;-146.29;100.00;59205.81;5017947;28;20437;-69
2024/02/15 07:21:29;;;;;;;15.03;6.17;;;;;;;-146.29;100.00;59205.81;5030991;28;20510;-69
2024/02/15 07:23:55;;;;;;;50.43;28.53;;;;;;;-146.29;100.00;59205.81;5032786;28;21101;-70
2024/02/15 07:26:27;;;;;;;29.53;16.83;;;;;;;-146.29;100.00;59205.81;5031942;28;20474;-69
2024/02/15 07:28:54;;;;;;;30.20;17.10;;;;;;;-146.29;100.00;59205.81;5034059;28;20426;-69
2024/02/15 07:31:23;;;;;;;44.50;25.77;;;;;;;-146.29;100.00;59205.81;5029975;28;20419;-69
2024/02/15 07:33:50;;;;;;;30.77;20.73;;;;;;;-146.29;100.00;59205.81;5039703;28;20826;-69
2024/02/15 07:36:23;;;;;;;22.57;15.03;;;;;;;-146.29;100.00;59205.81;5032260;28;20442;-70
2024/02/15 07:38:49;;;;;;;18.60;12.60;;;;;;;-146.29;100.00;59205.81;5033736;28;20513;-69
2024/02/15 07:41:19;;;;;;;19.07;11.07;;;;;;;-146.29;100.00;59205.81;5027158;28;20434;-71
2024/02/15 07:43:46;;;;;;;17.87;11.00;;;;;;;-146.29;100.00;59205.81;5027733;28;20449;-70
2024/02/15 07:46:16;;;;;;;14.53;5.13;;;;;;;-146.29;100.00;59205.81;5027068;28;20509;-70
2024/02/15 07:48:45;;;;;;;8.50;4.17;;;;;;;-146.29;100.00;59205.81;5026679;28;20504;-70
2024/02/15 07:51:12;;;;;;;4.23;3.03;;;;;;;-146.29;100.00;59205.81;5024904;28;20429;-69
2024/02/15 07:53:40;;;;;;;8.47;3.40;;;;;;;-146.29;100.00;59205.81;5028408;28;20464;-70
2024/02/15 07:56:05;;;;;;;4.60;2.90;;;;;;;-146.29;100.00;59205.81;5027084;28;20446;-69
2024/02/15 07:58:31;;;;;;;4.20;2.73;;;;;;;-146.29;100.00;59205.81;5023053;28;20425;-69
2024/02/15 08:00:57;;;;;;;7.10;2.50;;;;;;;-146.29;100.00;59205.81;5011625;28;20203;-70
2024/02/15 08:03:23;;;;;;;5.13;2.40;;;;;;;-146.29;100.00;59205.81;5031383;28;20254;-69
2024/02/15 08:05:48;;;;;;;3.47;2.50;;;;;;;-146.29;100.00;59205.81;5027796;28;20497;-69
2024/02/15 08:08:14;;;;;;;3.70;2.50;;;;;;;-146.29;100.00;59205.81;5032893;28;20184;-69
2024/02/15 08:10:39;;;;;;;6.60;2.87;;;;;;;-146.29;100.00;59205.81;5029604;28;20873;-69
2024/02/15 08:13:04;;;;;;;2.70;2.30;;;;;;;-146.29;100.00;59205.81;5030279;28;20248;-70
2024/02/15 08:15:30;;;;;;;4.20;2.27;;;;;;;-146.29;100.00;59205.81;5034771;28;20261;-69
2024/02/15 08:17:56;;;;;;;3.43;2.10;;;;;;;-146.29;100.00;59205.81;5026209;28;20295;-68
2024/02/15 08:20:21;;;;;;;3.23;2.13;;;;;;;-146.29;100.00;59205.81;5032317;28;20665;-70
2024/02/15 08:22:47;;;;;;;4.57;2.00;;;;;;;-146.29;100.00;59205.81;5035171;28;20183;-71
2024/02/15 08:25:15;;;;;;;6.37;2.63;;;;;;;-146.29;100.00;59205.81;5029480;28;20237;-70
2024/02/15 08:27:42;;;;;;;4.37;2.50;;;;;;;-146.29;100.00;59205.81;5002912;28;20187;-71
2024/02/15 08:30:14;;;;;;;4.57;2.30;;;;;;;-146.29;100.00;59205.81;5030068;28;20501;-70
2024/02/15 08:32:41;;;;;;;3.60;2.50;;;;;;;-146.29;100.00;59205.81;5030911;28;20557;-70
2024/02/15 08:35:10;;;;;;;3.00;2.47;;;;;;;-146.29;100.00;59205.81;5038844;28;20453;-70
2024/02/15 08:37:37;;;;;;;6.43;2.50;;;;;;;-146.29;100.00;59205.81;5032029;28;20498;-71
2024/02/15 08:40:04;;;;;;;3.60;2.13;;;;;;;-146.29;100.00;59205.81;5038019;28;20472;-69
2024/02/15 08:42:30;;;;;;;8.00;2.47;;;;;;;-146.29;100.00;59205.81;5034378;28;21045;-72
2024/02/15 08:44:56;;;;;;;3.93;2.20;;;;;;;-146.29;100.00;59205.81;5029934;28;20573;-70
2024/02/15 08:47:22;;;;;;;6.00;2.43;;;;;;;-146.29;100.00;59205.81;5029194;28;20597;-70
2024/02/15 08:49:47;;;;;;;3.53;2.00;;;;;;;-146.29;100.00;59205.81;5039437;28;20437;-71
2024/02/15 08:52:13;;;;;;;13.17;2.47;;;;;;;-146.29;100.00;59205.81;5034822;28;20184;-72
2024/02/15 08:54:38;;;;;;;3.93;2.27;;;;;;;-146.29;100.00;59205.81;5037768;28;20701;-69
2024/02/15 08:57:04;;;;;;;2.23;2.00;;;;;;;-146.29;100.00;59205.81;5030223;28;20254;-69
2024/02/15 08:59:30;;;;;;;4.13;2.03;;;;;;;-146.29;100.00;59205.81;5029676;28;20199;-68
2024/02/15 09:01:56;;;;;;;3.00;1.80;;;;;;;-146.29;100.00;59205.81;5035690;28;20585;-69
2024/02/15 09:04:24;;;;;;;3.53;1.90;;;;;;;-146.29;100.00;59205.81;5029583;28;20758;-70
2024/02/15 09:06:50;;;;;;;7.83;2.10;;;;;;;-146.29;100.00;59205.81;5030129;28;20210;-70
2024/02/15 09:09:16;;;;;;;3.73;1.80;;;;;;;-146.29;100.00;59205.81;5033163;28;20943;-70
2024/02/15 09:11:41;;;;;;;5.73;2.63;;;;;;;-146.29;100.00;59205.81;5038114;28;20517;-70
2024/02/15 09:14:09;;;;;;;2.37;1.83;;;;;;;-146.29;100.00;59205.81;5029374;28;20191;-69
2024/02/15 09:16:39;;;;;;;6.93;2.10;;;;;;;-146.29;100.00;59205.81;5029898;28;20254;-69
2024/02/15 09:19:06;;;;;;;6.27;2.50;;;;;;;-146.29;100.00;59205.81;5030666;28;20423;-69
2024/02/15 09:21:33;;;;;;;6.07;2.33;;;;;;;-146.29;100.00;59205.81;5029765;28;20923;-69
2024/02/15 09:23:59;;;;;;;3.97;2.37;;;;;;;-146.29;100.00;59205.81;5034811;28;20797;-69
2024/02/15 09:26:24;;;;;;;4.90;2.43;;;;;;;-146.29;100.00;59205.81;5029364;28;20473;-70
2024/02/15 09:28:50;;;;;;;4.37;2.30;;;;;;;-146.29;100.00;59205.81;5029636;28;20422;-70
2024/02/15 09:31:15;;;;;;;8.60;2.57;;;;;;;-146.29;100.00;59205.81;5033079;28;20234;-70
2024/02/15 09:33:41;;;;;;;6.07;2.40;;;;;;;-146.29;100.00;59205.81;5029131;28;20203;-69
2024/02/15 09:36:06;;;;;;;7.47;2.47;;;;;;;-146.29;100.00;59205.81;5032471;28;20676;-69
2024/02/15 09:38:32;;;;;;;3.83;2.00;;;;;;;-146.29;100.00;59205.81;5027927;28;20279;-68
2024/02/15 09:40:57;;;;;;;4.93;2.90;;;;;;;-146.29;100.00;59205.81;5035743;28;20190;-70
2024/02/15 09:43:25;;;;;;;5.37;2.67;;;;;;;-146.29;100.00;59205.81;5027759;28;20235;-70
2024/02/15 09:45:52;;;;;;;5.30;2.47;;;;;;;-146.29;100.00;59205.81;5026928;28;20306;-69
2024/02/15 09:48:18;;;;;;;5.00;2.43;;;;;;;-146.29;100.00;59205.81;5029040;28;20418;-69
2024/02/15 09:50:46;;;;;;;3.17;2.20;;;;;;;-146.29;100.00;59205.81;5035619;28;20434;-68
2024/02/15 09:53:12;;;;;;;5.60;1.97;;;;;;;-146.29;100.00;59205.81;5029171;28;20893;-71
2024/02/15 09:55:41;;;;;;;4.80;2.20;;;;;;;-146.29;100.00;59205.81;5027888;28;20443;-71
2024/02/15 09:58:08;;;;;;;4.70;1.90;;;;;;;-146.29;100.00;59205.81;5028055;28;20254;-70
2024/02/15 10:00:34;;;;;;;3.57;1.97;;;;;;;-146.29;100.00;59205.81;5028461;28;20441;-70
2024/02/15 10:03:01;;;;;;;4.00;2.10;;;;;;;-146.29;100.00;59205.81;5028877;28;20438;-70
2024/02/15 10:05:26;;;;;;;5.13;1.80;;;;;;;-146.29;100.00;59205.81;5027026;28;20462;-70
2024/02/15 10:07:52;;;;;;;7.80;1.90;;;;;;;-146.29;100.00;59205.81;5033970;28;20479;-70
2024/02/15 10:10:22;;;;;;;5.97;2.10;;;;;;;-146.29;100.00;59205.81;5033727;28;20184;-70
2024/02/15 10:12:48;;;;;;;3.50;2.30;;;;;;;-146.29;100.00;59205.81;5033477;28;20183;-69
2024/02/15 10:15:40;;;;;;;4.43;1.80;;;;;;;-146.29;100.00;59205.81;5021808;28;21017;-70
2024/02/15 10:18:13;;;;;;;2.93;1.40;;;;;;;-146.29;100.00;59205.81;5026523;28;20792;-70
2024/02/15 10:20:39;;;;;;;6.10;1.60;;;;;;;-146.29;100.00;59205.81;5019984;28;20481;-70
2024/02/15 10:23:08;;;;;;;2.87;1.60;;;;;;;-146.29;100.00;59205.81;5030895;28;20483;-70
2024/02/15 10:25:34;;;;;;;3.13;1.40;;;;;;;-146.29;100.00;59205.81;5027051;28;20484;-70
2024/02/15 10:28:06;;;;;;;6.30;1.60;;;;;;;-146.29;100.00;59205.81;5024685;28;20422;-69
2024/02/15 10:30:34;;;;;;;3.30;1.70;;;;;;;-146.29;100.00;59205.81;5027591;28;20521;-69
2024/02/15 10:32:59;;;;;;;3.03;1.50;;;;;;;-146.29;100.00;59205.81;5024053;28;20419;-70
2024/02/15 10:35:25;;;;;;;3.90;1.40;;;;;;;-146.29;100.00;59205.81;5017802;28;20439;-70
2024/02/15 10:37:51;;;;;;;3.80;1.57;;;;;;;-146.29;100.00;59205.81;5024052;28;20203;-70
2024/02/15 10:40:20;;;;;;;1.77;1.10;;;;;;;-146.29;100.00;59205.81;5020587;28;20701;-69
2024/02/15 10:42:51;;;;;;;2.73;1.40;;;;;;;-146.29;100.00;59205.81;5024652;28;20192;-70
2024/02/15 10:45:20;;;;;;;1.90;1.20;;;;;;;-146.29;100.00;59205.81;5026882;28;20462;-70
2024/02/15 10:47:47;;;;;;;3.23;1.20;;;;;;;-146.29;100.00;59205.81;5028377;28;20954;-71
2024/02/15 10:50:13;;;;;;;2.33;1.20;;;;;;;-146.29;100.00;59205.81;5031972;28;20434;-70
2024/02/15 10:52:48;;;;;;;2.40;1.07;;;;;;;-146.29;100.00;59205.81;5028151;28;20926;-70
2024/02/15 10:55:21;;;;;;;3.30;1.23;;;;;;;-146.29;100.00;59205.81;5028118;28;20465;-70
2024/02/15 10:57:48;;;;;;;3.83;1.10;;;;;;;-146.29;100.00;59205.81;5022970;28;20496;-70
2024/02/15 11:00:20;;;;;;;4.50;1.50;;;;;;;-146.29;100.00;59205.81;5028264;28;20426;-69
2024/02/15 11:03:04;;;;;;;2.63;1.20;;;;;;;-146.29;100.00;59205.81;5026136;28;20453;-69
2024/02/15 11:05:35;;;;;;;4.90;1.43;;;;;;;-146.29;100.00;59205.81;5027361;28;20970;-69
2024/02/15 11:08:04;;;;;;;3.07;1.30;;;;;;;-146.29;100.00;59205.81;5028080;28;20429;-70
2024/02/15 11:10:30;;;;;;;2.90;1.10;;;;;;;-146.29;100.00;59205.81;5031775;28;20450;-69
2024/02/15 11:12:58;;;;;;;1.30;1.20;;;;;;;-146.29;100.00;59205.81;5034253;28;20447;-70
2024/02/15 11:15:36;;;;;;;2.97;1.13;;;;;;;-146.29;100.00;59205.81;5026600;28;20512;-70